Time;durP1;ratioP1;P1;durP2;ratioP2;P2;SDS_P1;SDS_P2;PMS_P1;PMS_P2;Temp;Humidity;BMP_temperature;BMP_pressure;BME280_temperature;BME280_humidity;BME280_pressure;Samples;Min_cycle;Max_cycle;Signal;HPM_P1;HPM_P2
2021/04/18 00:00:32;;;;;;;13.68;9.75;;;5.20;99.90;;;;;;5073467;28;20412;-72
2021/04/18 00:02:58;;;;;;;12.85;10.45;;;5.10;99.90;;;;;;5072949;28;20036;-72
2021/04/18 00:05:26;;;;;;;13.90;10.98;;;5.20;99.90;;;;;;5073284;28;20060;-72
2021/04/18 00:08:01;;;;;;;13.88;11.35;;;5.30;99.90;;;;;;5073544;28;20016;-71
2021/04/18 00:10:27;;;;;;;15.75;10.73;;;5.30;99.90;;;;;;5073522;28;20024;-71
2021/04/18 00:12:53;;;;;;;14.10;10.85;;;5.30;99.90;;;;;;5073101;28;20032;-73
2021/04/18 00:15:19;;;;;;;13.77;10.52;;;5.40;99.90;;;;;;5073484;28;20445;-71
2021/04/18 00:17:44;;;;;;;11.60;9.85;;;5.20;99.90;;;;;;5073688;28;20560;-71
2021/04/18 00:20:12;;;;;;;14.57;10.23;;;5.20;99.90;;;;;;5073214;28;20020;-71
2021/04/18 00:22:39;;;;;;;11.45;9.85;;;5.20;99.90;;;;;;5072587;28;20028;-72
2021/04/18 00:25:06;;;;;;;12.00;9.90;;;5.10;99.90;;;;;;5073357;28;20051;-71
2021/04/18 00:27:32;;;;;;;12.00;10.10;;;5.10;99.90;;;;;;5073727;28;20032;-73
2021/04/18 00:29:57;;;;;;;11.48;9.88;;;5.00;99.90;;;;;;5073458;28;20033;-71
2021/04/18 00:32:23;;;;;;;13.82;11.05;;;5.00;99.90;;;;;;5073603;28;20028;-71
2021/04/18 00:34:49;;;;;;;11.13;9.75;;;5.10;99.90;;;;;;5072798;28;20029;-72
2021/04/18 00:37:14;;;;;;;13.60;10.73;;;5.20;99.90;;;;;;5055240;28;20474;-70
2021/04/18 00:39:40;;;;;;;16.08;12.90;;;5.20;99.90;;;;;;5072791;28;20032;-72
2021/04/18 00:42:06;;;;;;;16.35;11.90;;;5.40;99.90;;;;;;5072208;28;20021;-72
2021/04/18 00:44:31;;;;;;;12.55;11.23;;;5.40;99.90;;;;;;5071916;28;20040;-70
2021/04/18 00:46:57;;;;;;;15.05;12.25;;;5.40;99.90;;;;;;5054831;28;20028;-71
2021/04/18 00:49:23;;;;;;;14.00;10.93;;;5.40;99.90;;;;;;5073028;28;20075;-70
2021/04/18 00:51:49;;;;;;;13.30;10.63;;;5.40;99.90;;;;;;5072852;28;20033;-71
2021/04/18 00:54:14;;;;;;;12.55;10.93;;;5.40;99.90;;;;;;5053565;28;20028;-72
2021/04/18 00:56:40;;;;;;;12.88;10.60;;;5.40;99.90;;;;;;5072234;28;20024;-73
2021/04/18 00:59:06;;;;;;;14.65;11.75;;;5.40;99.90;;;;;;5072112;28;20558;-71
2021/04/18 01:01:31;;;;;;;12.68;11.18;;;5.40;99.90;;;;;;5072254;28;20056;-70
2021/04/18 01:03:57;;;;;;;13.80;10.45;;;5.50;99.90;;;;;;5071509;28;20031;-71
2021/04/18 01:06:23;;;;;;;13.63;10.70;;;5.10;99.90;;;;;;5071842;28;20069;-71
2021/04/18 01:08:48;;;;;;;14.50;10.40;;;5.10;99.90;;;;;;5072210;28;20024;-72
2021/04/18 01:11:14;;;;;;;14.95;9.63;;;5.00;99.90;;;;;;5072071;28;20025;-71
2021/04/18 01:13:40;;;;;;;13.05;10.23;;;4.90;99.90;;;;;;5070956;28;20043;-71
2021/04/18 01:16:06;;;;;;;11.15;9.38;;;4.80;99.90;;;;;;5072011;28;20024;-72
2021/04/18 01:18:31;;;;;;;13.75;10.20;;;4.80;99.90;;;;;;5071842;28;20036;-71
2021/04/18 01:21:12;;;;;;;11.57;9.70;;;4.70;99.90;;;;;;5071765;28;20394;-71
2021/04/18 01:23:38;;;;;;;14.23;10.43;;;4.80;99.90;;;;;;5071098;28;20029;-71
2021/04/18 01:26:04;;;;;;;13.40;11.13;;;5.00;99.90;;;;;;5071757;28;20361;-71
2021/04/18 01:28:32;;;;;;;13.52;10.10;;;5.00;99.90;;;;;;5071823;28;20031;-72
2021/04/18 01:30:59;;;;;;;14.57;10.77;;;5.10;99.90;;;;;;5071773;28;20032;-71
2021/04/18 01:33:25;;;;;;;13.68;10.80;;;5.10;99.90;;;;;;5070890;28;20031;-71
2021/04/18 01:35:51;;;;;;;17.90;12.95;;;5.30;99.90;;;;;;5071819;28;20385;-71
2021/04/18 01:38:17;;;;;;;13.70;12.15;;;5.40;99.90;;;;;;5071651;28;20031;-71
2021/04/18 01:40:44;;;;;;;16.15;13.15;;;5.40;99.90;;;;;;5071547;28;20053;-72
2021/04/18 01:43:18;;;;;;;13.48;11.18;;;5.50;99.90;;;;;;5070317;28;20078;-71
2021/04/18 01:45:44;;;;;;;14.25;11.05;;;5.30;99.90;;;;;;5071433;28;20047;-71
2021/04/18 01:48:11;;;;;;;13.68;10.18;;;5.30;99.90;;;;;;5071237;28;20424;-70
2021/04/18 01:50:42;;;;;;;12.30;9.95;;;5.20;99.90;;;;;;5071362;28;20029;-72
2021/04/18 01:53:08;;;;;;;12.45;9.82;;;5.10;99.90;;;;;;5070721;28;20040;-71
2021/04/18 01:55:35;;;;;;;13.05;10.05;;;5.00;99.90;;;;;;5070552;28;20043;-72
2021/04/18 01:58:01;;;;;;;14.07;9.60;;;5.00;99.90;;;;;;5071235;28;20020;-71
2021/04/18 02:00:27;;;;;;;11.63;9.73;;;5.10;99.90;;;;;;5071100;28;20043;-71
2021/04/18 02:02:53;;;;;;;12.25;9.30;;;5.10;99.90;;;;;;5070576;28;20066;-71
2021/04/18 02:05:19;;;;;;;9.88;8.35;;;5.00;99.90;;;;;;5071186;28;20048;-71
2021/04/18 02:07:45;;;;;;;12.00;9.38;;;5.00;99.90;;;;;;5071213;28;20483;-72
2021/04/18 02:10:11;;;;;;;13.13;9.27;;;5.00;99.90;;;;;;5071215;28;20039;-71
2021/04/18 02:12:36;;;;;;;12.00;10.10;;;4.90;99.90;;;;;;5070830;28;20031;-72
2021/04/18 02:15:04;;;;;;;10.73;9.38;;;4.90;99.90;;;;;;5070501;28;20436;-71
2021/04/18 02:17:30;;;;;;;10.30;9.23;;;4.80;99.90;;;;;;5070979;28;20101;-71
2021/04/18 02:19:55;;;;;;;13.68;9.70;;;4.80;99.90;;;;;;5071043;28;20025;-71
2021/04/18 02:22:21;;;;;;;12.45;9.70;;;4.70;99.90;;;;;;5071033;28;20535;-71
2021/04/18 02:24:47;;;;;;;12.73;10.35;;;4.50;99.90;;;;;;5070369;28;20028;-72
2021/04/18 02:27:12;;;;;;;11.38;9.98;;;4.70;99.90;;;;;;5071102;28;20046;-71
2021/04/18 02:29:38;;;;;;;14.05;10.13;;;4.70;99.90;;;;;;5070739;28;20074;-71
2021/04/18 02:32:04;;;;;;;11.80;9.82;;;4.70;99.90;;;;;;5071018;28;20037;-71
2021/04/18 02:34:30;;;;;;;12.75;10.40;;;4.80;99.90;;;;;;5070269;28;20103;-71
2021/04/18 02:36:56;;;;;;;11.50;10.30;;;4.80;99.90;;;;;;5070810;28;20095;-70
2021/04/18 02:39:21;;;;;;;12.93;10.52;;;4.80;99.90;;;;;;5070996;28;20071;-72
2021/04/18 02:41:47;;;;;;;12.05;9.93;;;4.70;99.90;;;;;;5070927;28;20443;-71
2021/04/18 02:44:13;;;;;;;13.02;10.63;;;4.70;99.90;;;;;;5069666;28;20065;-71
2021/04/18 02:46:39;;;;;;;11.70;10.52;;;4.70;99.90;;;;;;5070724;28;20059;-71
2021/04/18 02:49:04;;;;;;;13.02;10.75;;;4.70;99.90;;;;;;5070911;28;20059;-72
2021/04/18 02:51:31;;;;;;;12.10;10.05;;;4.70;99.90;;;;;;5071685;28;20035;-72
2021/04/18 02:53:59;;;;;;;11.75;10.52;;;4.70;99.90;;;;;;5070388;28;20154;-72
2021/04/18 02:56:25;;;;;;;20.45;11.65;;;4.90;99.90;;;;;;5071061;28;20029;-71
2021/04/18 02:58:51;;;;;;;14.48;12.43;;;5.00;99.90;;;;;;5070489;28;20489;-71
2021/04/18 03:01:17;;;;;;;12.73;11.32;;;5.00;99.90;;;;;;5070915;28;20032;-70
2021/04/18 03:03:43;;;;;;;16.60;13.40;;;5.10;99.90;;;;;;5052267;28;20025;-70
2021/04/18 03:06:09;;;;;;;16.90;13.02;;;5.20;99.90;;;;;;5072553;28;20021;-71
2021/04/18 03:08:35;;;;;;;16.15;12.93;;;5.30;99.90;;;;;;5074660;28;20105;-70
2021/04/18 03:11:00;;;;;;;16.85;13.60;;;5.20;99.90;;;;;;5074521;28;20056;-71
2021/04/18 03:13:26;;;;;;;18.65;15.35;;;5.30;99.90;;;;;;5073390;28;20029;-71
2021/04/18 03:15:52;;;;;;;16.98;13.48;;;5.30;99.90;;;;;;5074039;28;20488;-71
2021/04/18 03:18:17;;;;;;;17.10;12.40;;;5.40;99.90;;;;;;5074503;28;20032;-71
2021/04/18 03:20:43;;;;;;;16.35;11.85;;;5.20;99.90;;;;;;5074426;28;20020;-71
2021/04/18 03:23:09;;;;;;;14.15;11.60;;;5.10;99.90;;;;;;5073700;28;20424;-70
2021/04/18 03:25:35;;;;;;;15.75;12.07;;;5.10;99.90;;;;;;5074262;28;20021;-71
2021/04/18 03:28:01;;;;;;;14.63;12.38;;;5.10;99.90;;;;;;5074243;28;20074;-71
2021/04/18 03:30:27;;;;;;;15.38;12.35;;;5.10;99.90;;;;;;5073939;28;20024;-72
2021/04/18 03:32:52;;;;;;;14.77;11.98;;;5.10;99.90;;;;;;5073897;28;20020;-72
2021/04/18 03:35:18;;;;;;;15.25;12.57;;;5.10;99.90;;;;;;5074628;28;20074;-70
2021/04/18 03:37:44;;;;;;;14.77;12.00;;;5.10;99.90;;;;;;5074260;28;20024;-71
2021/04/18 03:40:10;;;;;;;16.65;12.98;;;5.00;99.90;;;;;;5055891;28;20033;-70
2021/04/18 03:42:36;;;;;;;17.35;13.05;;;4.90;99.90;;;;;;5071205;28;20044;-72
2021/04/18 03:45:04;;;;;;;14.80;12.77;;;4.90;99.90;;;;;;5061243;23;20045;-70
2021/04/18 03:47:30;;;;;;;14.80;12.90;;;4.90;99.90;;;;;;5053743;28;20031;-69
2021/04/18 03:49:55;;;;;;;14.82;12.32;;;4.90;99.90;;;;;;5053881;28;20033;-70
2021/04/18 03:52:21;;;;;;;17.90;13.20;;;4.80;99.90;;;;;;5054082;28;20159;-70
2021/04/18 03:54:46;;;;;;;16.17;12.35;;;4.80;99.90;;;;;;5053094;28;20021;-70
2021/04/18 03:57:12;;;;;;;14.98;11.30;;;4.80;99.90;;;;;;5053551;28;20055;-70
2021/04/18 03:59:38;;;;;;;16.70;13.00;;;4.70;99.90;;;;;;5054275;28;20025;-69
2021/04/18 04:02:05;;;;;;;14.98;12.75;;;4.60;99.90;;;;;;5054083;28;20025;-69
2021/04/18 04:04:31;;;;;;;14.98;11.90;;;4.70;99.90;;;;;;5053256;28;20475;-70
2021/04/18 04:06:57;;;;;;;14.45;12.40;;;4.60;99.90;;;;;;5053781;28;20032;-70
2021/04/18 04:09:23;;;;;;;15.65;12.95;;;4.60;99.90;;;;;;5054401;28;20398;-69
2021/04/18 04:11:48;;;;;;;15.90;12.93;;;4.60;99.90;;;;;;5054243;28;20033;-71
2021/04/18 04:14:14;;;;;;;17.23;12.55;;;4.60;99.90;;;;;;5045124;28;20029;-70
2021/04/18 04:16:40;;;;;;;16.33;12.52;;;4.50;99.90;;;;;;5032372;28;20032;-70
2021/04/18 04:19:05;;;;;;;16.02;12.35;;;4.50;99.90;;;;;;5033736;28;20105;-71
2021/04/18 04:21:31;;;;;;;16.45;12.80;;;4.60;99.90;;;;;;5034846;28;20033;-69
2021/04/18 04:23:57;;;;;;;20.17;12.85;;;4.50;99.90;;;;;;5035894;28;20052;-70
2021/04/18 04:26:22;;;;;;;18.08;13.15;;;4.40;99.90;;;;;;5033769;28;20468;-69
2021/04/18 04:28:48;;;;;;;14.60;13.00;;;4.50;99.90;;;;;;5033298;28;20029;-70
2021/04/18 04:31:14;;;;;;;18.45;13.13;;;4.60;99.90;;;;;;5033243;28;20032;-69
2021/04/18 04:33:39;;;;;;;19.98;14.73;;;4.60;99.90;;;;;;5032590;28;20395;-70
2021/04/18 04:36:06;;;;;;;19.83;13.45;;;4.60;99.90;;;;;;5033123;28;20029;-70
2021/04/18 04:38:32;;;;;;;21.17;14.63;;;4.60;99.90;;;;;;5033034;28;20029;-70
2021/04/18 04:40:59;;;;;;;17.08;14.15;;;4.70;99.90;;;;;;5032826;28;20036;-70
2021/04/18 04:43:25;;;;;;;24.17;17.90;;;4.70;99.90;;;;;;5032311;28;20021;-70
2021/04/18 04:45:51;;;;;;;26.25;19.50;;;4.90;99.90;;;;;;5052582;28;20032;-70
2021/04/18 04:48:17;;;;;;;24.95;18.95;;;5.00;99.90;;;;;;5052823;28;20091;-71
2021/04/18 04:50:43;;;;;;;27.17;19.25;;;5.00;99.90;;;;;;5052762;28;20479;-71
2021/04/18 04:53:08;;;;;;;27.98;21.08;;;5.00;99.90;;;;;;5051975;28;20025;-69
2021/04/18 04:55:34;;;;;;;26.63;18.58;;;5.10;99.90;;;;;;5052337;28;20025;-70
2021/04/18 04:58:00;;;;;;;23.30;17.58;;;5.00;99.90;;;;;;5052847;28;20078;-70
2021/04/18 05:00:26;;;;;;;23.95;18.05;;;4.90;99.90;;;;;;5052380;28;20068;-70
2021/04/18 05:02:52;;;;;;;18.88;16.27;;;5.00;99.90;;;;;;5056595;28;20051;-72
2021/04/18 05:05:17;;;;;;;25.60;16.60;;;4.90;99.90;;;;;;5069344;28;20024;-70
2021/04/18 05:07:44;;;;;;;16.75;13.63;;;5.00;99.90;;;;;;5078761;28;20029;-71
2021/04/18 05:10:10;;;;;;;18.00;13.98;;;4.90;99.90;;;;;;5043530;28;20390;-70
2021/04/18 05:12:36;;;;;;;16.98;13.32;;;4.80;99.90;;;;;;5043988;28;20021;-71
2021/04/18 05:15:04;;;;;;;14.75;12.00;;;4.80;99.90;;;;;;5057903;28;20901;-70
2021/04/18 05:17:29;;;;;;;16.45;12.77;;;4.60;99.90;;;;;;5075127;28;20497;-69
2021/04/18 05:19:55;;;;;;;17.63;12.85;;;4.60;99.90;;;;;;5063158;28;20069;-69
2021/04/18 05:22:20;;;;;;;17.73;12.80;;;4.70;99.90;;;;;;5072700;28;20051;-70
2021/04/18 05:24:46;;;;;;;18.20;13.85;;;4.60;99.90;;;;;;5069299;28;20020;-69
2021/04/18 05:27:12;;;;;;;17.77;13.02;;;4.70;99.90;;;;;;5070406;28;20123;-70
2021/04/18 05:29:37;;;;;;;14.93;12.88;;;4.60;99.90;;;;;;5070480;28;20029;-70
2021/04/18 05:32:07;;;;;;;15.95;13.93;;;4.70;99.90;;;;;;5070319;28;20108;-69
2021/04/18 05:34:33;;;;;;;16.25;13.60;;;4.80;99.90;;;;;;5069679;28;20028;-69
2021/04/18 05:37:00;;;;;;;19.40;14.73;;;5.10;99.90;;;;;;5074860;28;20031;-70
2021/04/18 05:39:27;;;;;;;17.48;14.00;;;5.20;99.90;;;;;;5069111;28;20021;-68
2021/04/18 05:41:53;;;;;;;13.05;11.57;;;5.20;99.90;;;;;;5069038;28;20028;-69
2021/04/18 05:44:19;;;;;;;15.93;12.55;;;5.20;99.90;;;;;;5067338;28;20044;-69
2021/04/18 05:46:45;;;;;;;14.80;13.10;;;5.20;99.90;;;;;;5069578;28;20067;-71
2021/04/18 05:49:11;;;;;;;14.40;12.82;;;5.30;99.90;;;;;;5069022;28;20482;-70
2021/04/18 05:51:37;;;;;;;16.50;13.23;;;5.30;99.90;;;;;;5067848;28;20024;-70
2021/04/18 05:54:04;;;;;;;15.05;12.60;;;5.20;99.90;;;;;;5065942;28;20476;-69
2021/04/18 05:56:30;;;;;;;16.15;11.85;;;5.20;99.90;;;;;;5065748;28;20031;-70
2021/04/18 05:58:55;;;;;;;13.77;12.27;;;5.20;99.90;;;;;;5068793;28;20695;-69
2021/04/18 06:01:25;;;;;;;14.90;13.02;;;5.20;99.90;;;;;;5050899;28;20113;-71
2021/04/18 06:03:54;;;;;;;18.52;13.10;;;5.20;99.90;;;;;;5067620;28;20048;-70
2021/04/18 06:06:21;;;;;;;14.07;12.63;;;5.20;99.90;;;;;;5068102;28;20024;-69
2021/04/18 06:08:46;;;;;;;15.73;13.50;;;5.10;99.90;;;;;;5069600;28;20028;-70
2021/04/18 06:11:12;;;;;;;14.68;12.82;;;5.20;99.90;;;;;;5051449;28;20062;-71
2021/04/18 06:13:38;;;;;;;16.75;13.23;;;5.10;99.90;;;;;;5066485;28;20028;-69
2021/04/18 06:16:04;;;;;;;17.55;12.38;;;5.20;99.90;;;;;;5049431;28;20033;-71
2021/04/18 06:18:30;;;;;;;15.60;13.18;;;5.20;99.90;;;;;;5049696;28;20033;-70
2021/04/18 06:20:56;;;;;;;15.27;12.02;;;5.30;99.90;;;;;;5049312;28;20075;-70
2021/04/18 06:23:22;;;;;;;64.35;34.55;;;5.40;99.90;;;;;;5049112;28;20059;-69
2021/04/18 06:25:48;;;;;;;15.43;12.95;;;5.50;99.90;;;;;;5049356;28;20020;-71
2021/04/18 06:28:15;;;;;;;14.45;12.88;;;5.50;99.90;;;;;;5051184;28;20036;-71
2021/04/18 06:30:40;;;;;;;18.58;14.93;;;5.50;99.90;;;;;;5051281;28;20387;-71
2021/04/18 06:33:09;;;;;;;14.50;13.00;;;5.60;99.90;;;;;;5050397;28;20029;-70
2021/04/18 06:35:34;;;;;;;17.33;13.23;;;5.60;99.90;;;;;;5064560;28;20371;-70
2021/04/18 06:38:00;;;;;;;16.67;13.25;;;5.80;99.90;;;;;;5070927;28;20082;-71
2021/04/18 06:40:26;;;;;;;14.95;13.35;;;6.00;99.90;;;;;;5071428;28;20103;-70
2021/04/18 06:42:55;;;;;;;14.43;12.43;;;6.30;99.90;;;;;;5074095;28;20056;-70
2021/04/18 06:45:21;;;;;;;16.25;12.98;;;6.10;99.90;;;;;;5074161;28;20028;-70
2021/04/18 06:47:47;;;;;;;16.55;11.68;;;6.00;99.90;;;;;;5074913;28;20487;-70
2021/04/18 06:50:13;;;;;;;14.15;12.05;;;6.00;99.90;;;;;;5056636;28;20448;-73
2021/04/18 06:52:39;;;;;;;15.05;12.00;;;5.90;99.90;;;;;;5074420;28;20470;-70
2021/04/18 06:55:09;;;;;;;14.02;11.50;;;5.90;99.90;;;;;;5056474;28;20033;-70
2021/04/18 06:57:36;;;;;;;13.75;12.13;;;6.00;99.90;;;;;;5074240;28;20020;-71
2021/04/18 07:00:04;;;;;;;13.38;12.00;;;6.10;99.90;;;;;;5074517;28;20020;-71
2021/04/18 07:02:31;;;;;;;13.70;12.15;;;6.30;99.90;;;;;;5074678;28;20116;-73
2021/04/18 07:05:06;;;;;;;14.60;13.05;;;6.40;99.90;;;;;;5073594;28;20013;-70
2021/04/18 07:07:36;;;;;;;17.23;13.10;;;6.70;99.90;;;;;;5074143;28;20067;-71
2021/04/18 07:10:07;;;;;;;16.45;13.55;;;6.80;99.90;;;;;;5074541;28;20020;-70
2021/04/18 07:12:37;;;;;;;17.25;13.48;;;6.80;99.90;;;;;;5074562;28;20029;-71
2021/04/18 07:15:04;;;;;;;15.13;13.45;;;6.90;99.90;;;;;;5073745;28;20025;-70
2021/04/18 07:17:29;;;;;;;17.52;12.75;;;6.90;99.90;;;;;;5074217;28;20033;-70
2021/04/18 07:20:14;;;;;;;17.80;12.35;;;6.70;99.90;;;;;;5074377;28;20035;-71
2021/04/18 07:22:40;;;;;;;17.23;13.35;;;6.50;99.90;;;;;;5072486;28;20020;-71
2021/04/18 07:25:07;;;;;;;14.65;12.30;;;6.30;99.90;;;;;;5074078;28;20082;-69
2021/04/18 07:27:47;;;;;;;16.17;12.63;;;5.90;99.90;;;;;;5073663;28;20469;-70
2021/04/18 07:30:16;;;;;;;15.52;13.23;;;5.70;99.90;;;;;;5055848;28;20123;-70
2021/04/18 07:32:44;;;;;;;14.32;12.43;;;5.80;99.90;;;;;;5073803;28;20472;-70
2021/04/18 07:35:35;;;;;;;14.50;12.88;;;6.00;99.90;;;;;;5073635;28;20727;-70
2021/04/18 07:38:19;;;;;;;15.90;12.63;;;6.10;99.90;;;;;;5073438;28;20055;-69
2021/04/18 07:40:47;;;;;;;17.77;13.90;;;6.00;99.90;;;;;;5073721;28;20487;-70
2021/04/18 07:43:14;;;;;;;16.45;13.00;;;6.00;99.90;;;;;;5072951;28;20032;-71
2021/04/18 07:45:42;;;;;;;15.57;11.85;;;6.20;99.90;;;;;;5054007;28;20072;-69
2021/04/18 07:48:13;;;;;;;16.55;13.30;;;6.30;99.90;;;;;;5035563;28;20021;-71
2021/04/18 07:50:41;;;;;;;17.60;13.13;;;6.40;99.90;;;;;;5053941;28;20028;-69
2021/04/18 07:53:08;;;;;;;14.10;12.60;;;6.30;99.90;;;;;;5051527;28;20029;-70
2021/04/18 07:55:35;;;;;;;14.73;12.75;;;6.10;99.90;;;;;;5035547;28;20021;-69
2021/04/18 07:58:02;;;;;;;14.70;12.07;;;6.10;99.90;;;;;;5068534;28;20052;-69
2021/04/18 08:00:28;;;;;;;20.02;13.20;;;6.10;99.90;;;;;;5073525;28;20025;-68
2021/04/18 08:02:54;;;;;;;16.48;12.45;;;6.30;99.90;;;;;;5075042;28;20074;-72
2021/04/18 08:05:24;;;;;;;19.23;13.02;;;6.30;99.90;;;;;;5076162;28;20024;-71
2021/04/18 08:08:10;;;;;;;15.65;12.40;;;6.60;99.90;;;;;;5073627;28;20017;-70
2021/04/18 08:10:42;;;;;;;17.45;13.23;;;6.50;99.90;;;;;;5073645;28;20024;-69
2021/04/18 08:13:18;;;;;;;15.63;11.68;;;6.70;99.90;;;;;;5073219;28;20059;-71
2021/04/18 08:15:57;;;;;;;13.85;11.60;;;7.00;99.90;;;;;;5052439;28;20036;-70
2021/04/18 08:18:30;;;;;;;16.35;12.07;;;7.20;99.90;;;;;;5063129;28;20036;-70
2021/04/18 08:20:57;;;;;;;17.75;11.27;;;7.30;99.90;;;;;;5073363;28;20028;-71
2021/04/18 08:23:34;;;;;;;12.95;11.02;;;7.30;99.90;;;;;;5072953;28;20052;-72
2021/04/18 08:26:12;;;;;;;12.70;11.40;;;7.40;99.90;;;;;;5065012;28;20021;-71
2021/04/18 08:29:02;;;;;;;14.13;11.95;;;7.60;99.90;;;;;;5053174;28;20391;-70
2021/04/18 08:31:29;;;;;;;15.68;11.27;;;7.70;99.90;;;;;;5034823;28;20032;-70
2021/04/18 08:33:56;;;;;;;15.15;12.60;;;8.00;99.90;;;;;;5052343;28;20025;-71
2021/04/18 08:36:34;;;;;;;13.52;11.75;;;8.10;99.90;;;;;;5052704;28;20028;-71
2021/04/18 08:39:05;;;;;;;14.63;11.60;;;8.10;99.90;;;;;;5052738;28;20050;-70
2021/04/18 08:41:46;;;;;;;12.65;11.35;;;8.10;99.90;;;;;;5052810;28;20028;-70
2021/04/18 08:44:19;;;;;;;14.00;11.35;;;8.20;99.90;;;;;;5051779;28;20107;-70
2021/04/18 08:46:46;;;;;;;13.32;11.48;;;8.10;99.90;;;;;;5053072;28;20101;-70
2021/04/18 08:49:24;;;;;;;15.07;11.65;;;7.90;99.90;;;;;;5052750;28;20033;-71
2021/04/18 08:51:52;;;;;;;14.38;11.95;;;8.00;99.90;;;;;;5053298;28;20058;-71
2021/04/18 08:54:23;;;;;;;18.35;11.10;;;8.40;99.90;;;;;;5052008;28;20036;-70
2021/04/18 08:56:54;;;;;;;13.32;11.35;;;8.40;99.90;;;;;;5057611;28;20017;-71
2021/04/18 08:59:20;;;;;;;12.90;11.00;;;8.50;99.90;;;;;;5072588;28;20048;-72
2021/04/18 09:02:03;;;;;;;15.52;12.30;;;8.40;99.90;;;;;;5073004;28;20082;-70
2021/04/18 09:04:31;;;;;;;14.93;10.85;;;8.60;99.90;;;;;;5071791;28;20025;-71
2021/04/18 09:06:58;;;;;;;13.45;10.40;;;7.90;99.90;;;;;;5074050;28;20091;-72
2021/04/18 09:09:24;;;;;;;17.40;11.80;;;7.40;99.90;;;;;;5075163;28;20032;-70
2021/04/18 09:11:50;;;;;;;14.82;11.68;;;7.40;99.90;;;;;;5072406;28;20451;-71
2021/04/18 09:14:18;;;;;;;16.35;12.02;;;7.50;99.90;;;;;;5070011;28;20032;-70
2021/04/18 09:16:44;;;;;;;15.85;12.02;;;7.60;99.90;;;;;;5071060;28;20017;-71
2021/04/18 09:19:19;;;;;;;16.75;12.43;;;7.80;99.90;;;;;;5070320;28;20037;-71
2021/04/18 09:21:58;;;;;;;13.55;11.60;;;7.70;99.90;;;;;;5068805;28;20036;-69
2021/04/18 09:24:25;;;;;;;14.65;11.30;;;7.70;99.90;;;;;;5051187;28;20032;-71
2021/04/18 09:27:11;;;;;;;13.98;11.68;;;7.70;99.90;;;;;;5069916;28;20024;-69
2021/04/18 09:29:52;;;;;;;15.52;12.35;;;7.60;99.90;;;;;;5069511;28;20020;-70
2021/04/18 09:32:20;;;;;;;16.98;11.82;;;7.60;99.90;;;;;;5070095;28;20028;-70
2021/04/18 09:34:46;;;;;;;18.60;12.80;;;7.80;99.90;;;;;;5068984;28;20029;-70
2021/04/18 09:37:43;;;;;;;22.58;18.80;;;7.80;99.90;;;;;;5069169;28;20466;-70
2021/04/18 09:40:16;;;;;;;18.35;12.35;;;8.20;99.90;;;;;;5039276;28;20075;-69
2021/04/18 09:42:46;;;;;;;22.35;17.30;;;8.30;99.90;;;;;;5069378;28;20044;-70
2021/04/18 09:45:20;;;;;;;29.80;16.75;;;7.80;99.90;;;;;;5068864;28;20103;-71
2021/04/18 09:47:51;;;;;;;22.45;12.95;;;7.40;99.90;;;;;;5069565;28;20059;-71
2021/04/18 09:50:24;;;;;;;17.02;11.32;;;7.40;99.90;;;;;;5070150;28;20021;-69
2021/04/18 09:52:51;;;;;;;26.85;18.55;;;7.40;99.90;;;;;;5068696;28;20028;-71
2021/04/18 09:55:23;;;;;;;20.60;12.57;;;7.60;99.90;;;;;;5050849;28;20730;-70
2021/04/18 09:58:00;;;;;;;20.20;11.40;;;7.60;99.90;;;;;;5070268;28;20020;-70
2021/04/18 10:00:32;;;;;;;16.95;11.88;;;7.40;99.90;;;;;;5070706;28;20036;-70
2021/04/18 10:03:04;;;;;;;19.38;11.93;;;7.30;99.90;;;;;;5052442;28;20536;-70
2021/04/18 10:05:32;;;;;;;20.60;11.82;;;7.60;99.90;;;;;;5064352;28;20671;-71
2021/04/18 10:08:18;;;;;;;21.75;11.27;;;7.80;99.90;;;;;;5069270;28;20033;-70
2021/04/18 10:10:44;;;;;;;23.85;11.93;;;7.40;99.90;;;;;;5072349;28;20033;-70
2021/04/18 10:13:10;;;;;;;25.27;12.13;;;7.20;99.90;;;;;;5076703;28;20033;-70
2021/04/18 10:15:55;;;;;;;20.80;11.70;;;7.50;99.90;;;;;;5060679;28;20028;-70
2021/04/18 10:18:21;;;;;;;25.92;13.18;;;7.70;99.90;;;;;;5079914;28;20103;-71
2021/04/18 10:20:48;;;;;;;26.65;12.23;;;7.70;99.90;;;;;;5079858;28;20035;-71
2021/04/18 10:23:14;;;;;;;25.88;12.98;;;7.80;99.90;;;;;;5067104;28;20021;-70
2021/04/18 10:25:40;;;;;;;45.80;22.65;;;8.00;99.90;;;;;;5050913;28;20596;-72
2021/04/18 10:28:08;;;;;;;30.40;14.48;;;7.80;99.90;;;;;;5032722;28;20386;-71
2021/04/18 10:30:38;;;;;;;25.33;11.95;;;7.50;99.90;;;;;;5049409;28;20025;-70
2021/04/18 10:33:04;;;;;;;22.92;11.73;;;7.60;99.90;;;;;;5049712;28;20087;-70
2021/04/18 10:35:30;;;;;;;22.65;12.82;;;7.70;99.90;;;;;;5031699;28;20057;-70
2021/04/18 10:37:56;;;;;;;26.55;13.90;;;7.90;99.90;;;;;;5031684;28;20068;-71
2021/04/18 10:40:22;;;;;;;28.50;13.02;;;7.80;99.90;;;;;;5032317;28;20033;-70
2021/04/18 10:42:49;;;;;;;21.58;13.05;;;8.00;99.90;;;;;;5049330;28;20032;-69
2021/04/18 10:45:16;;;;;;;25.33;13.00;;;8.10;99.90;;;;;;5049210;28;20025;-70
2021/04/18 10:47:43;;;;;;;27.23;14.20;;;8.30;99.90;;;;;;5049238;28;20414;-70
2021/04/18 10:50:09;;;;;;;41.72;21.30;;;8.50;99.90;;;;;;5049748;28;20103;-70
2021/04/18 10:52:37;;;;;;;22.08;12.18;;;8.80;99.90;;;;;;5049824;28;20429;-70
2021/04/18 10:55:04;;;;;;;27.33;13.55;;;9.10;99.90;;;;;;5049550;28;20234;-70
2021/04/18 10:57:32;;;;;;;22.42;12.85;;;9.30;99.90;;;;;;5041673;28;20393;-70
2021/04/18 10:59:57;;;;;;;19.15;12.20;;;9.50;99.90;;;;;;5069372;28;20025;-70
2021/04/18 11:02:23;;;;;;;25.17;11.95;;;9.60;99.90;;;;;;5069276;28;20425;-70
2021/04/18 11:04:49;;;;;;;31.48;18.77;;;9.60;99.90;;;;;;5050293;28;20036;-70
2021/04/18 11:07:14;;;;;;;23.77;11.98;;;9.60;99.90;;;;;;5050752;28;20031;-71
2021/04/18 11:09:40;;;;;;;21.63;11.73;;;9.20;99.90;;;;;;5050781;28;20029;-71
2021/04/18 11:12:20;;;;;;;16.77;11.07;;;8.90;99.90;;;;;;5069123;28;20095;-71
2021/04/18 11:14:47;;;;;;;23.30;11.70;;;8.80;99.90;;;;;;5059291;28;20039;-71
2021/04/18 11:17:13;;;;;;;22.50;12.50;;;8.80;99.90;;;;;;5068541;28;20020;-72
2021/04/18 11:19:41;;;;;;;33.47;20.48;;;9.30;99.90;;;;;;5049292;28;20402;-71
2021/04/18 11:22:09;;;;;;;27.40;15.07;;;9.90;99.90;;;;;;5068732;28;20798;-71
2021/04/18 11:24:35;;;;;;;20.30;12.18;;;9.80;99.90;;;;;;5067647;28;20024;-71
2021/04/18 11:27:00;;;;;;;31.65;13.70;;;9.10;99.90;;;;;;5069640;28;20020;-70
2021/04/18 11:29:26;;;;;;;27.92;13.50;;;8.40;99.90;;;;;;5072173;28;20020;-70
2021/04/18 11:31:52;;;;;;;26.73;12.80;;;8.20;99.90;;;;;;5070840;28;20067;-71
2021/04/18 11:34:19;;;;;;;26.02;13.23;;;8.30;99.90;;;;;;5071323;28;20028;-71
2021/04/18 11:36:45;;;;;;;18.65;12.30;;;8.90;99.90;;;;;;5071571;28;20063;-70
2021/04/18 11:39:11;;;;;;;26.60;13.88;;;8.70;99.90;;;;;;5053826;28;20059;-71
2021/04/18 11:41:37;;;;;;;20.73;13.05;;;8.80;99.90;;;;;;5071596;28;20040;-70
2021/04/18 11:44:04;;;;;;;25.95;14.20;;;8.80;99.90;;;;;;5069782;28;20440;-70
2021/04/18 11:46:30;;;;;;;22.23;13.02;;;8.80;99.90;;;;;;5070871;28;20151;-71
2021/04/18 11:49:00;;;;;;;24.23;13.82;;;9.20;99.90;;;;;;5070922;28;20024;-71
2021/04/18 11:51:26;;;;;;;25.17;13.27;;;9.30;99.90;;;;;;5071268;28;20036;-70
2021/04/18 11:53:52;;;;;;;24.13;12.57;;;9.30;99.90;;;;;;5069736;28;20032;-69
2021/04/18 11:56:17;;;;;;;20.65;12.77;;;9.10;99.90;;;;;;5071028;28;20021;-69
2021/04/18 11:58:43;;;;;;;25.08;13.15;;;9.10;99.90;;;;;;5072904;28;20028;-70
2021/04/18 12:01:09;;;;;;;33.55;14.20;;;9.10;99.90;;;;;;5072826;28;20047;-69
2021/04/18 12:03:35;;;;;;;23.92;14.30;;;8.90;99.90;;;;;;5054302;28;20025;-70
2021/04/18 12:06:00;;;;;;;24.08;13.27;;;8.80;99.90;;;;;;5072848;28;20025;-71
2021/04/18 12:08:26;;;;;;;21.88;13.25;;;9.00;99.90;;;;;;5073380;28;20047;-70
2021/04/18 12:10:52;;;;;;;25.35;13.98;;;8.90;99.90;;;;;;5072846;28;20166;-69
2021/04/18 12:13:17;;;;;;;25.30;12.80;;;9.00;99.90;;;;;;5071868;28;20029;-70
2021/04/18 12:15:46;;;;;;;25.35;13.05;;;9.00;99.90;;;;;;5071979;28;20060;-70
2021/04/18 12:18:14;;;;;;;26.52;13.07;;;9.30;99.90;;;;;;5072043;28;20116;-70
2021/04/18 12:20:40;;;;;;;23.20;13.23;;;9.30;99.90;;;;;;5054829;28;20115;-71
2021/04/18 12:23:12;;;;;;;29.33;13.48;;;9.40;99.90;;;;;;5055263;28;20119;-71
2021/04/18 12:25:37;;;;;;;27.20;13.25;;;9.20;99.90;;;;;;5073931;28;20480;-72
2021/04/18 12:28:03;;;;;;;22.42;12.18;;;9.20;99.90;;;;;;5073581;28;20115;-74
2021/04/18 12:30:29;;;;;;;22.70;12.40;;;9.20;99.90;;;;;;5073556;28;20025;-74
2021/04/18 12:32:55;;;;;;;25.33;11.68;;;9.20;99.90;;;;;;5072537;28;20436;-69
2021/04/18 12:35:20;;;;;;;20.10;10.45;;;9.20;99.90;;;;;;5073138;28;20478;-72
2021/04/18 12:37:47;;;;;;;20.65;10.95;;;9.70;99.90;;;;;;5072075;28;20099;-76
2021/04/18 12:40:13;;;;;;;19.70;11.68;;;9.90;99.90;;;;;;5018958;28;20055;-75